sensor_id;sensor_type;location;lat;lon;timestamp;temperature;humidity
33739;DHT22;20063;51.730;11.110;2023-02-26T00:02:17;0.10;99.90
33739;DHT22;20063;51.730;11.110;2023-02-26T00:04:43;0.10;99.90
33739;DHT22;20063;51.730;11.110;2023-02-26T00:07:08;0.00;99.90
33739;DHT22;20063;51.730;11.110;2023-02-26T00:09:34;0.10;99.90
33739;DHT22;20063;51.730;11.110;2023-02-26T00:12:00;0.00;99.90
33739;DHT22;20063;51.730;11.110;2023-02-26T00:14:26;0.00;99.90
33739;DHT22;20063;51.730;11.110;2023-02-26T00:17:07;0.00;99.90
33739;DHT22;20063;51.730;11.110;2023-02-26T00:19:37;0.00;99.90
33739;DHT22;20063;51.730;11.110;2023-02-26T00:22:03;0.00;99.90
33739;DHT22;20063;51.730;11.110;2023-02-26T00:24:29;0.00;99.90
33739;DHT22;20063;51.730;11.110;2023-02-26T00:26:54;0.10;99.90
33739;DHT22;20063;51.730;11.110;2023-02-26T00:29:20;0.10;99.90
33739;DHT22;20063;51.730;11.110;2023-02-26T00:31:46;0.00;99.90
33739;DHT22;20063;51.730;11.110;2023-02-26T00:34:12;0.00;99.90
33739;DHT22;20063;51.730;11.110;2023-02-26T00:39:50;0.00;99.90
33739;DHT22;20063;51.730;11.110;2023-02-26T00:42:21;0.00;99.90
33739;DHT22;20063;51.730;11.110;2023-02-26T00:44:47;0.00;99.90
33739;DHT22;20063;51.730;11.110;2023-02-26T00:47:23;0.00;99.90
33739;DHT22;20063;51.730;11.110;2023-02-26T00:55:30;-0.10;99.90
33739;DHT22;20063;51.730;11.110;2023-02-26T00:57:56;-0.10;99.90
33739;DHT22;20063;51.730;11.110;2023-02-26T01:00:21;-0.10;99.90
33739;DHT22;20063;51.730;11.110;2023-02-26T01:02:47;-0.20;99.90
33739;DHT22;20063;51.730;11.110;2023-02-26T01:05:14;-0.20;99.90
33739;DHT22;20063;51.730;11.110;2023-02-26T01:10:26;-0.20;99.90
33739;DHT22;20063;51.730;11.110;2023-02-26T01:12:53;-0.20;99.90
33739;DHT22;20063;51.730;11.110;2023-02-26T01:15:24;-0.20;99.90
33739;DHT22;20063;51.730;11.110;2023-02-26T01:18:02;-0.20;99.90
33739;DHT22;20063;51.730;11.110;2023-02-26T01:20:43;-0.20;99.90
33739;DHT22;20063;51.730;11.110;2023-02-26T01:23:15;-0.20;99.90
33739;DHT22;20063;51.730;11.110;2023-02-26T01:25:54;-0.20;99.90
33739;DHT22;20063;51.730;11.110;2023-02-26T01:28:22;-0.30;99.90
33739;DHT22;20063;51.730;11.110;2023-02-26T01:30:49;-0.30;99.90
33739;DHT22;20063;51.730;11.110;2023-02-26T01:33:28;-0.30;99.90
33739;DHT22;20063;51.730;11.110;2023-02-26T01:39:02;-0.30;99.90
33739;DHT22;20063;51.730;11.110;2023-02-26T01:41:34;-0.30;99.90
33739;DHT22;20063;51.730;11.110;2023-02-26T01:44:14;-0.30;99.90
33739;DHT22;20063;51.730;11.110;2023-02-26T01:49:35;-0.30;99.90
33739;DHT22;20063;51.730;11.110;2023-02-26T01:52:02;-0.30;99.90
33739;DHT22;20063;51.730;11.110;2023-02-26T01:54:31;-0.30;99.90
33739;DHT22;20063;51.730;11.110;2023-02-26T01:57:08;-0.30;99.90
33739;DHT22;20063;51.730;11.110;2023-02-26T01:59:41;-0.30;99.90
33739;DHT22;20063;51.730;11.110;2023-02-26T02:02:09;-0.30;99.90
33739;DHT22;20063;51.730;11.110;2023-02-26T02:04:36;-0.30;99.90
33739;DHT22;20063;51.730;11.110;2023-02-26T02:07:03;-0.30;99.90
33739;DHT22;20063;51.730;11.110;2023-02-26T02:09:29;-0.30;99.90
33739;DHT22;20063;51.730;11.110;2023-02-26T02:15:52;-0.30;99.90
33739;DHT22;20063;51.730;11.110;2023-02-26T02:18:11;-0.20;99.90
33739;DHT22;20063;51.730;11.110;2023-02-26T02:20:51;-0.20;99.90
33739;DHT22;20063;51.730;11.110;2023-02-26T02:31:32;-0.20;99.90
33739;DHT22;20063;51.730;11.110;2023-02-26T02:36:37;-0.20;99.90
33739;DHT22;20063;51.730;11.110;2023-02-26T02:39:28;-0.20;99.90
33739;DHT22;20063;51.730;11.110;2023-02-26T02:42:04;-0.20;99.90
33739;DHT22;20063;51.730;11.110;2023-02-26T02:44:31;-0.20;99.90
33739;DHT22;20063;51.730;11.110;2023-02-26T02:46:59;-0.20;99.90
33739;DHT22;20063;51.730;11.110;2023-02-26T02:49:35;-0.20;99.90
33739;DHT22;20063;51.730;11.110;2023-02-26T02:52:12;-0.30;99.90
33739;DHT22;20063;51.730;11.110;2023-02-26T02:55:12;-0.30;99.90
33739;DHT22;20063;51.730;11.110;2023-02-26T02:57:43;-0.30;99.90
33739;DHT22;20063;51.730;11.110;2023-02-26T03:00:13;-0.30;99.90
33739;DHT22;20063;51.730;11.110;2023-02-26T03:02:49;-0.30;99.90
33739;DHT22;20063;51.730;11.110;2023-02-26T03:05:17;-0.30;99.90
33739;DHT22;20063;51.730;11.110;2023-02-26T03:07:47;-0.40;99.90
33739;DHT22;20063;51.730;11.110;2023-02-26T03:10:14;-0.40;99.90
33739;DHT22;20063;51.730;11.110;2023-02-26T03:12:41;-0.40;99.90
33739;DHT22;20063;51.730;11.110;2023-02-26T03:15:07;-0.40;99.90
33739;DHT22;20063;51.730;11.110;2023-02-26T03:17:38;-0.40;99.90
33739;DHT22;20063;51.730;11.110;2023-02-26T03:20:12;-0.40;99.90
33739;DHT22;20063;51.730;11.110;2023-02-26T03:25:50;-0.40;99.90
33739;DHT22;20063;51.730;11.110;2023-02-26T03:31:20;-0.40;99.90
33739;DHT22;20063;51.730;11.110;2023-02-26T03:34:07;-0.40;99.90
33739;DHT22;20063;51.730;11.110;2023-02-26T03:36:58;-0.40;99.90
33739;DHT22;20063;51.730;11.110;2023-02-26T03:39:32;-0.40;99.90
33739;DHT22;20063;51.730;11.110;2023-02-26T03:42:17;-0.40;99.90
33739;DHT22;20063;51.730;11.110;2023-02-26T03:44:54;-0.40;99.90
33739;DHT22;20063;51.730;11.110;2023-02-26T03:47:21;-0.40;99.90
33739;DHT22;20063;51.730;11.110;2023-02-26T03:49:55;-0.40;99.90
33739;DHT22;20063;51.730;11.110;2023-02-26T03:52:26;-0.40;99.90
33739;DHT22;20063;51.730;11.110;2023-02-26T03:55:09;-0.40;99.90
33739;DHT22;20063;51.730;11.110;2023-02-26T03:57:36;-0.40;99.90
33739;DHT22;20063;51.730;11.110;2023-02-26T04:00:02;-0.40;99.90
33739;DHT22;20063;51.730;11.110;2023-02-26T04:03:02;-0.40;99.90
33739;DHT22;20063;51.730;11.110;2023-02-26T04:05:35;-0.40;99.90
33739;DHT22;20063;51.730;11.110;2023-02-26T04:08:02;-0.40;99.90
33739;DHT22;20063;51.730;11.110;2023-02-26T04:10:43;-0.30;99.90
33739;DHT22;20063;51.730;11.110;2023-02-26T04:13:09;-0.30;99.90
33739;DHT22;20063;51.730;11.110;2023-02-26T04:15:37;-0.30;99.90
33739;DHT22;20063;51.730;11.110;2023-02-26T04:18:03;-0.40;99.90
33739;DHT22;20063;51.730;11.110;2023-02-26T04:20:29;-0.40;99.90
33739;DHT22;20063;51.730;11.110;2023-02-26T04:22:54;-0.30;99.90
33739;DHT22;20063;51.730;11.110;2023-02-26T04:25:20;-0.30;99.90
33739;DHT22;20063;51.730;11.110;2023-02-26T04:27:49;-0.40;99.90
33739;DHT22;20063;51.730;11.110;2023-02-26T04:30:14;-0.40;99.90
33739;DHT22;20063;51.730;11.110;2023-02-26T04:32:40;-0.40;99.90
33739;DHT22;20063;51.730;11.110;2023-02-26T04:35:06;-0.40;99.90
33739;DHT22;20063;51.730;11.110;2023-02-26T04:37:31;-0.40;99.90
33739;DHT22;20063;51.730;11.110;2023-02-26T04:39:57;-0.30;99.90
33739;DHT22;20063;51.730;11.110;2023-02-26T04:42:23;-0.30;99.90
33739;DHT22;20063;51.730;11.110;2023-02-26T04:44:48;-0.30;99.90
33739;DHT22;20063;51.730;11.110;2023-02-26T04:47:14;-0.30;99.90
33739;DHT22;20063;51.730;11.110;2023-02-26T04:49:39;-0.30;99.90
33739;DHT22;20063;51.730;11.110;2023-02-26T04:52:05;-0.30;99.90
33739;DHT22;20063;51.730;11.110;2023-02-26T04:54:31;-0.20;99.90
33739;DHT22;20063;51.730;11.110;2023-02-26T04:56:56;-0.30;99.90
33739;DHT22;20063;51.730;11.110;2023-02-26T04:59:22;-0.30;99.90
33739;DHT22;20063;51.730;11.110;2023-02-26T05:01:48;-0.30;99.90
33739;DHT22;20063;51.730;11.110;2023-02-26T05:04:13;-0.40;99.90
33739;DHT22;20063;51.730;11.110;2023-02-26T05:06:39;-0.40;99.90
33739;DHT22;20063;51.730;11.110;2023-02-26T05:09:06;-0.40;99.90
33739;DHT22;20063;51.730;11.110;2023-02-26T05:11:31;-0.40;99.90
33739;DHT22;20063;51.730;11.110;2023-02-26T05:13:57;-0.40;99.90
33739;DHT22;20063;51.730;11.110;2023-02-26T05:16:23;-0.40;99.90
33739;DHT22;20063;51.730;11.110;2023-02-26T05:18:48;-0.40;99.90
33739;DHT22;20063;51.730;11.110;2023-02-26T05:21:14;-0.40;99.90
33739;DHT22;20063;51.730;11.110;2023-02-26T05:23:39;-0.40;99.90
33739;DHT22;20063;51.730;11.110;2023-02-26T05:26:05;-0.40;99.90
33739;DHT22;20063;51.730;11.110;2023-02-26T05:28:31;-0.40;99.90
33739;DHT22;20063;51.730;11.110;2023-02-26T05:30:58;-0.40;99.90
33739;DHT22;20063;51.730;11.110;2023-02-26T05:33:24;-0.40;99.90
33739;DHT22;20063;51.730;11.110;2023-02-26T05:35:51;-0.40;99.90
33739;DHT22;20063;51.730;11.110;2023-02-26T05:38:17;-0.40;99.90
33739;DHT22;20063;51.730;11.110;2023-02-26T05:40:43;-0.40;99.90
33739;DHT22;20063;51.730;11.110;2023-02-26T05:43:09;-0.50;99.90
33739;DHT22;20063;51.730;11.110;2023-02-26T05:45:36;-0.50;99.90
33739;DHT22;20063;51.730;11.110;2023-02-26T05:48:01;-0.50;99.90
33739;DHT22;20063;51.730;11.110;2023-02-26T05:50:27;-0.50;99.90
33739;DHT22;20063;51.730;11.110;2023-02-26T05:52:54;-0.50;99.90
33739;DHT22;20063;51.730;11.110;2023-02-26T05:55:21;-0.60;99.90
33739;DHT22;20063;51.730;11.110;2023-02-26T05:57:47;-0.60;99.90
33739;DHT22;20063;51.730;11.110;2023-02-26T06:00:13;-0.60;99.90
33739;DHT22;20063;51.730;11.110;2023-02-26T06:02:39;-0.60;99.90
33739;DHT22;20063;51.730;11.110;2023-02-26T06:05:06;-0.50;99.90
33739;DHT22;20063;51.730;11.110;2023-02-26T06:07:31;-0.50;99.90
33739;DHT22;20063;51.730;11.110;2023-02-26T06:09:57;-0.50;99.90
33739;DHT22;20063;51.730;11.110;2023-02-26T06:12:22;-0.50;99.90
33739;DHT22;20063;51.730;11.110;2023-02-26T06:14:48;-0.50;99.90
33739;DHT22;20063;51.730;11.110;2023-02-26T06:17:14;-0.50;99.90
33739;DHT22;20063;51.730;11.110;2023-02-26T06:19:39;-0.50;99.90
33739;DHT22;20063;51.730;11.110;2023-02-26T06:22:05;-0.50;99.90
33739;DHT22;20063;51.730;11.110;2023-02-26T06:24:31;-0.60;99.90
33739;DHT22;20063;51.730;11.110;2023-02-26T06:26:57;-0.60;99.90
33739;DHT22;20063;51.730;11.110;2023-02-26T06:29:22;-0.60;99.90
33739;DHT22;20063;51.730;11.110;2023-02-26T06:31:48;-0.50;99.90
33739;DHT22;20063;51.730;11.110;2023-02-26T06:34:14;-0.50;99.90
33739;DHT22;20063;51.730;11.110;2023-02-26T06:36:39;-0.50;99.90
33739;DHT22;20063;51.730;11.110;2023-02-26T06:39:05;-0.50;99.90
33739;DHT22;20063;51.730;11.110;2023-02-26T06:41:32;-0.50;99.90
33739;DHT22;20063;51.730;11.110;2023-02-26T06:43:58;-0.40;99.90
33739;DHT22;20063;51.730;11.110;2023-02-26T06:46:23;-0.40;99.90
33739;DHT22;20063;51.730;11.110;2023-02-26T06:48:49;-0.50;99.90
33739;DHT22;20063;51.730;11.110;2023-02-26T06:51:14;-0.40;99.90
33739;DHT22;20063;51.730;11.110;2023-02-26T06:53:41;-0.40;99.90
33739;DHT22;20063;51.730;11.110;2023-02-26T06:56:07;-0.30;99.90
33739;DHT22;20063;51.730;11.110;2023-02-26T06:58:33;-0.40;99.90
33739;DHT22;20063;51.730;11.110;2023-02-26T07:00:59;-0.30;99.90
33739;DHT22;20063;51.730;11.110;2023-02-26T07:03:24;-0.40;99.90
33739;DHT22;20063;51.730;11.110;2023-02-26T07:05:51;-0.30;99.90
33739;DHT22;20063;51.730;11.110;2023-02-26T07:08:17;-0.30;99.90
33739;DHT22;20063;51.730;11.110;2023-02-26T07:10:42;-0.30;99.90
33739;DHT22;20063;51.730;11.110;2023-02-26T07:13:10;-0.30;99.90
33739;DHT22;20063;51.730;11.110;2023-02-26T07:15:35;-0.30;99.90
33739;DHT22;20063;51.730;11.110;2023-02-26T07:18:01;-0.30;99.90
33739;DHT22;20063;51.730;11.110;2023-02-26T07:20:27;-0.30;99.90
33739;DHT22;20063;51.730;11.110;2023-02-26T07:22:54;-0.20;99.90
33739;DHT22;20063;51.730;11.110;2023-02-26T07:25:19;-0.30;99.90
33739;DHT22;20063;51.730;11.110;2023-02-26T07:27:45;-0.30;99.90
33739;DHT22;20063;51.730;11.110;2023-02-26T07:30:11;-0.20;99.90
33739;DHT22;20063;51.730;11.110;2023-02-26T07:32:38;-0.20;99.90
33739;DHT22;20063;51.730;11.110;2023-02-26T07:35:04;-0.20;99.90
33739;DHT22;20063;51.730;11.110;2023-02-26T07:37:30;-0.20;99.90
33739;DHT22;20063;51.730;11.110;2023-02-26T07:39:56;-0.10;99.90
33739;DHT22;20063;51.730;11.110;2023-02-26T07:42:21;-0.10;99.90
33739;DHT22;20063;51.730;11.110;2023-02-26T07:44:47;0.00;99.90
33739;DHT22;20063;51.730;11.110;2023-02-26T07:47:13;0.00;99.90
33739;DHT22;20063;51.730;11.110;2023-02-26T07:49:38;0.00;99.90
33739;DHT22;20063;51.730;11.110;2023-02-26T07:52:04;-0.10;99.90
33739;DHT22;20063;51.730;11.110;2023-02-26T07:54:35;-0.10;99.90
33739;DHT22;20063;51.730;11.110;2023-02-26T08:00:22;0.00;99.90
33739;DHT22;20063;51.730;11.110;2023-02-26T08:02:48;0.00;99.90
33739;DHT22;20063;51.730;11.110;2023-02-26T08:05:14;0.00;99.90
33739;DHT22;20063;51.730;11.110;2023-02-26T08:07:39;0.00;99.90
33739;DHT22;20063;51.730;11.110;2023-02-26T08:10:05;0.10;99.90
33739;DHT22;20063;51.730;11.110;2023-02-26T08:12:31;0.00;99.90
33739;DHT22;20063;51.730;11.110;2023-02-26T08:14:57;0.10;99.90
33739;DHT22;20063;51.730;11.110;2023-02-26T08:17:23;0.10;99.90
33739;DHT22;20063;51.730;11.110;2023-02-26T08:19:48;0.10;99.90
33739;DHT22;20063;51.730;11.110;2023-02-26T08:22:14;0.10;99.90
33739;DHT22;20063;51.730;11.110;2023-02-26T08:24:39;0.10;99.90
33739;DHT22;20063;51.730;11.110;2023-02-26T08:27:05;0.10;99.90
33739;DHT22;20063;51.730;11.110;2023-02-26T08:29:30;0.10;99.90
33739;DHT22;20063;51.730;11.110;2023-02-26T08:31:56;0.10;99.90
33739;DHT22;20063;51.730;11.110;2023-02-26T08:34:22;0.10;99.90
33739;DHT22;20063;51.730;11.110;2023-02-26T08:36:47;0.10;99.90
33739;DHT22;20063;51.730;11.110;2023-02-26T08:39:14;0.10;99.90
33739;DHT22;20063;51.730;11.110;2023-02-26T08:41:40;0.10;99.90
33739;DHT22;20063;51.730;11.110;2023-02-26T08:44:05;0.10;99.90
33739;DHT22;20063;51.730;11.110;2023-02-26T08:46:32;0.20;99.90
33739;DHT22;20063;51.730;11.110;2023-02-26T08:49:00;0.20;99.90
33739;DHT22;20063;51.730;11.110;2023-02-26T08:51:26;0.20;99.90
33739;DHT22;20063;51.730;11.110;2023-02-26T08:53:52;0.20;99.90
33739;DHT22;20063;51.730;11.110;2023-02-26T08:56:17;0.30;99.90
33739;DHT22;20063;51.730;11.110;2023-02-26T08:58:43;0.30;99.90
33739;DHT22;20063;51.730;11.110;2023-02-26T09:01:09;0.30;99.90
33739;DHT22;20063;51.730;11.110;2023-02-26T09:03:34;0.40;99.90
33739;DHT22;20063;51.730;11.110;2023-02-26T09:06:00;0.40;99.90
33739;DHT22;20063;51.730;11.110;2023-02-26T09:08:26;0.40;99.90
33739;DHT22;20063;51.730;11.110;2023-02-26T09:10:51;0.50;99.90
33739;DHT22;20063;51.730;11.110;2023-02-26T09:13:17;0.50;99.90
33739;DHT22;20063;51.730;11.110;2023-02-26T09:15:43;0.50;99.90
33739;DHT22;20063;51.730;11.110;2023-02-26T09:18:08;0.50;99.90
33739;DHT22;20063;51.730;11.110;2023-02-26T09:20:40;0.50;99.90
33739;DHT22;20063;51.730;11.110;2023-02-26T09:23:07;0.50;99.90
33739;DHT22;20063;51.730;11.110;2023-02-26T09:25:32;0.50;99.90
33739;DHT22;20063;51.730;11.110;2023-02-26T09:27:58;0.50;99.90
33739;DHT22;20063;51.730;11.110;2023-02-26T09:30:23;0.50;99.90
33739;DHT22;20063;51.730;11.110;2023-02-26T09:32:49;0.60;99.90
33739;DHT22;20063;51.730;11.110;2023-02-26T09:35:14;0.70;99.90
33739;DHT22;20063;51.730;11.110;2023-02-26T09:37:40;0.70;99.90
33739;DHT22;20063;51.730;11.110;2023-02-26T09:40:06;0.70;99.90
33739;DHT22;20063;51.730;11.110;2023-02-26T09:42:59;0.70;99.90
33739;DHT22;20063;51.730;11.110;2023-02-26T09:45:33;0.80;99.90
33739;DHT22;20063;51.730;11.110;2023-02-26T09:48:03;0.80;99.90
33739;DHT22;20063;51.730;11.110;2023-02-26T09:50:51;0.80;99.90
33739;DHT22;20063;51.730;11.110;2023-02-26T09:53:43;0.80;99.90
33739;DHT22;20063;51.730;11.110;2023-02-26T09:56:20;0.80;99.90
33739;DHT22;20063;51.730;11.110;2023-02-26T09:58:46;0.80;99.90
33739;DHT22;20063;51.730;11.110;2023-02-26T10:01:19;0.80;99.90
33739;DHT22;20063;51.730;11.110;2023-02-26T10:07:15;0.90;99.90
33739;DHT22;20063;51.730;11.110;2023-02-26T10:09:57;1.00;99.90
33739;DHT22;20063;51.730;11.110;2023-02-26T10:12:17;1.00;99.90
33739;DHT22;20063;51.730;11.110;2023-02-26T10:20:01;1.10;99.90
33739;DHT22;20063;51.730;11.110;2023-02-26T10:25:19;1.20;99.90
33739;DHT22;20063;51.730;11.110;2023-02-26T10:30:43;1.30;99.90
33739;DHT22;20063;51.730;11.110;2023-02-26T10:35:53;1.30;99.90
33739;DHT22;20063;51.730;11.110;2023-02-26T10:38:24;1.20;99.90
33739;DHT22;20063;51.730;11.110;2023-02-26T10:40:58;1.30;99.90
33739;DHT22;20063;51.730;11.110;2023-02-26T10:43:37;1.40;99.90
33739;DHT22;20063;51.730;11.110;2023-02-26T10:46:29;1.40;99.90
33739;DHT22;20063;51.730;11.110;2023-02-26T10:49:46;1.40;99.90
33739;DHT22;20063;51.730;11.110;2023-02-26T10:52:16;1.30;99.90
33739;DHT22;20063;51.730;11.110;2023-02-26T10:54:59;1.30;99.90
33739;DHT22;20063;51.730;11.110;2023-02-26T10:57:30;1.30;99.90
33739;DHT22;20063;51.730;11.110;2023-02-26T10:59:59;1.30;99.90
33739;DHT22;20063;51.730;11.110;2023-02-26T11:02:43;1.30;99.90
33739;DHT22;20063;51.730;11.110;2023-02-26T11:05:17;1.30;99.90
33739;DHT22;20063;51.730;11.110;2023-02-26T11:07:46;1.30;99.90
33739;DHT22;20063;51.730;11.110;2023-02-26T11:10:22;1.30;99.90
33739;DHT22;20063;51.730;11.110;2023-02-26T11:12:49;1.40;99.90
33739;DHT22;20063;51.730;11.110;2023-02-26T11:15:17;1.40;99.90
33739;DHT22;20063;51.730;11.110;2023-02-26T11:17:46;1.40;99.90
33739;DHT22;20063;51.730;11.110;2023-02-26T11:22:46;1.60;99.90
33739;DHT22;20063;51.730;11.110;2023-02-26T11:25:22;1.60;99.90
33739;DHT22;20063;51.730;11.110;2023-02-26T11:27:53;1.60;99.90
33739;DHT22;20063;51.730;11.110;2023-02-26T11:30:21;1.60;99.90
33739;DHT22;20063;51.730;11.110;2023-02-26T11:32:51;1.60;99.90
33739;DHT22;20063;51.730;11.110;2023-02-26T11:35:21;1.60;99.90
33739;DHT22;20063;51.730;11.110;2023-02-26T11:37:52;1.50;99.90
33739;DHT22;20063;51.730;11.110;2023-02-26T11:43:05;1.50;99.90
33739;DHT22;20063;51.730;11.110;2023-02-26T11:45:34;1.70;99.90
33739;DHT22;20063;51.730;11.110;2023-02-26T11:48:06;1.80;99.90
33739;DHT22;20063;51.730;11.110;2023-02-26T11:50:40;1.90;99.90
33739;DHT22;20063;51.730;11.110;2023-02-26T11:53:15;1.90;99.90
33739;DHT22;20063;51.730;11.110;2023-02-26T11:55:45;1.90;99.90
33739;DHT22;20063;51.730;11.110;2023-02-26T11:58:21;1.80;99.90
33739;DHT22;20063;51.730;11.110;2023-02-26T12:00:48;1.80;99.90
33739;DHT22;20063;51.730;11.110;2023-02-26T12:03:20;1.70;99.90
33739;DHT22;20063;51.730;11.110;2023-02-26T12:05:46;1.70;99.90
33739;DHT22;20063;51.730;11.110;2023-02-26T12:08:25;1.70;99.90
33739;DHT22;20063;51.730;11.110;2023-02-26T12:19:15;1.90;99.90
33739;DHT22;20063;51.730;11.110;2023-02-26T12:24:47;1.90;99.90
33739;DHT22;20063;51.730;11.110;2023-02-26T12:38:32;1.90;99.90
33739;DHT22;20063;51.730;11.110;2023-02-26T12:43:55;2.00;99.90
33739;DHT22;20063;51.730;11.110;2023-02-26T12:51:48;2.00;99.90
33739;DHT22;20063;51.730;11.110;2023-02-26T12:54:28;2.00;99.90
33739;DHT22;20063;51.730;11.110;2023-02-26T13:08:10;2.20;99.90
33739;DHT22;20063;51.730;11.110;2023-02-26T13:13:58;2.20;99.90
33739;DHT22;20063;51.730;11.110;2023-02-26T13:16:35;2.30;99.90
33739;DHT22;20063;51.730;11.110;2023-02-26T13:19:22;2.40;99.90
33739;DHT22;20063;51.730;11.110;2023-02-26T13:21:54;2.40;99.90
33739;DHT22;20063;51.730;11.110;2023-02-26T13:24:25;2.50;99.90
33739;DHT22;20063;51.730;11.110;2023-02-26T13:26:53;2.40;99.90
33739;DHT22;20063;51.730;11.110;2023-02-26T13:29:34;2.40;99.90
33739;DHT22;20063;51.730;11.110;2023-02-26T13:32:10;2.40;99.90
33739;DHT22;20063;51.730;11.110;2023-02-26T13:34:43;2.40;99.90
33739;DHT22;20063;51.730;11.110;2023-02-26T13:49:06;2.40;99.90
33739;DHT22;20063;51.730;11.110;2023-02-26T13:51:43;2.40;99.90
33739;DHT22;20063;51.730;11.110;2023-02-26T14:04:53;2.40;99.90
33739;DHT22;20063;51.730;11.110;2023-02-26T14:07:47;2.40;99.90
33739;DHT22;20063;51.730;11.110;2023-02-26T14:10:26;2.50;99.90
33739;DHT22;20063;51.730;11.110;2023-02-26T14:13:16;2.50;99.90
33739;DHT22;20063;51.730;11.110;2023-02-26T14:15:58;2.50;99.90
33739;DHT22;20063;51.730;11.110;2023-02-26T14:18:34;2.40;99.90
33739;DHT22;20063;51.730;11.110;2023-02-26T14:24:43;2.60;99.90
33739;DHT22;20063;51.730;11.110;2023-02-26T14:29:40;2.90;99.90
33739;DHT22;20063;51.730;11.110;2023-02-26T14:34:42;3.60;99.90
33739;DHT22;20063;51.730;11.110;2023-02-26T14:37:14;3.90;99.90
33739;DHT22;20063;51.730;11.110;2023-02-26T14:39:46;3.90;99.90
33739;DHT22;20063;51.730;11.110;2023-02-26T14:42:34;3.70;99.90
33739;DHT22;20063;51.730;11.110;2023-02-26T14:47:54;3.30;99.90
33739;DHT22;20063;51.730;11.110;2023-02-26T14:50:22;3.20;99.90
33739;DHT22;20063;51.730;11.110;2023-02-26T14:58:25;2.80;99.90
33739;DHT22;20063;51.730;11.110;2023-02-26T15:01:24;2.80;99.90
33739;DHT22;20063;51.730;11.110;2023-02-26T15:12:30;3.30;99.90
33739;DHT22;20063;51.730;11.110;2023-02-26T15:18:21;3.10;99.90
33739;DHT22;20063;51.730;11.110;2023-02-26T15:26:03;3.90;99.90
33739;DHT22;20063;51.730;11.110;2023-02-26T15:28:35;4.20;99.90
33739;DHT22;20063;51.730;11.110;2023-02-26T15:31:04;4.30;99.90
33739;DHT22;20063;51.730;11.110;2023-02-26T15:33:31;4.40;99.90
33739;DHT22;20063;51.730;11.110;2023-02-26T15:35:58;4.30;97.50
33739;DHT22;20063;51.730;11.110;2023-02-26T15:38:24;4.10;97.80
33739;DHT22;20063;51.730;11.110;2023-02-26T15:40:54;3.90;99.90
33739;DHT22;20063;51.730;11.110;2023-02-26T15:43:23;3.60;99.90
33739;DHT22;20063;51.730;11.110;2023-02-26T15:45:53;3.40;99.90
33739;DHT22;20063;51.730;11.110;2023-02-26T15:48:24;3.20;99.90
33739;DHT22;20063;51.730;11.110;2023-02-26T15:50:57;3.00;99.90
33739;DHT22;20063;51.730;11.110;2023-02-26T15:53:28;2.90;99.90
33739;DHT22;20063;51.730;11.110;2023-02-26T15:55:56;2.80;99.90
33739;DHT22;20063;51.730;11.110;2023-02-26T16:01:03;2.60;99.90
33739;DHT22;20063;51.730;11.110;2023-02-26T16:03:33;2.60;99.90
33739;DHT22;20063;51.730;11.110;2023-02-26T16:05:59;2.50;99.90
33739;DHT22;20063;51.730;11.110;2023-02-26T16:08:25;2.40;99.90
33739;DHT22;20063;51.730;11.110;2023-02-26T16:10:53;2.40;99.90
33739;DHT22;20063;51.730;11.110;2023-02-26T16:13:40;2.40;99.90
33739;DHT22;20063;51.730;11.110;2023-02-26T16:16:11;2.30;99.90
33739;DHT22;20063;51.730;11.110;2023-02-26T16:18:39;2.30;99.90
33739;DHT22;20063;51.730;11.110;2023-02-26T16:21:08;2.30;99.90
33739;DHT22;20063;51.730;11.110;2023-02-26T16:23:42;2.30;99.90
33739;DHT22;20063;51.730;11.110;2023-02-26T16:26:24;2.20;99.90
33739;DHT22;20063;51.730;11.110;2023-02-26T16:28:56;2.20;99.90
33739;DHT22;20063;51.730;11.110;2023-02-26T16:31:25;2.10;99.90
33739;DHT22;20063;51.730;11.110;2023-02-26T16:33:58;2.10;99.90
33739;DHT22;20063;51.730;11.110;2023-02-26T16:36:28;2.10;99.90
33739;DHT22;20063;51.730;11.110;2023-02-26T16:39:13;2.00;99.90
33739;DHT22;20063;51.730;11.110;2023-02-26T16:41:46;2.10;99.90
33739;DHT22;20063;51.730;11.110;2023-02-26T16:44:35;2.00;99.90
33739;DHT22;20063;51.730;11.110;2023-02-26T16:47:03;2.00;99.90
33739;DHT22;20063;51.730;11.110;2023-02-26T16:49:32;2.00;99.90
33739;DHT22;20063;51.730;11.110;2023-02-26T16:51:58;2.00;99.90
33739;DHT22;20063;51.730;11.110;2023-02-26T16:54:37;2.00;99.90
33739;DHT22;20063;51.730;11.110;2023-02-26T16:57:07;1.90;99.90
33739;DHT22;20063;51.730;11.110;2023-02-26T16:59:39;2.00;99.90
33739;DHT22;20063;51.730;11.110;2023-02-26T17:02:13;1.90;99.90
33739;DHT22;20063;51.730;11.110;2023-02-26T17:04:40;2.00;99.90
33739;DHT22;20063;51.730;11.110;2023-02-26T17:07:23;2.00;99.90
33739;DHT22;20063;51.730;11.110;2023-02-26T17:09:51;2.00;99.90
33739;DHT22;20063;51.730;11.110;2023-02-26T17:12:23;1.90;99.90
33739;DHT22;20063;51.730;11.110;2023-02-26T17:15:00;2.00;99.90
33739;DHT22;20063;51.730;11.110;2023-02-26T17:17:26;1.90;99.90
33739;DHT22;20063;51.730;11.110;2023-02-26T17:19:51;1.90;99.90
33739;DHT22;20063;51.730;11.110;2023-02-26T17:22:23;1.90;99.90
33739;DHT22;20063;51.730;11.110;2023-02-26T17:24:51;1.90;99.90
33739;DHT22;20063;51.730;11.110;2023-02-26T17:27:30;1.90;99.90
33739;DHT22;20063;51.730;11.110;2023-02-26T17:29:56;1.80;99.90
33739;DHT22;20063;51.730;11.110;2023-02-26T17:32:24;1.90;99.90
33739;DHT22;20063;51.730;11.110;2023-02-26T17:34:51;1.80;99.90
33739;DHT22;20063;51.730;11.110;2023-02-26T17:37:17;1.80;99.90
33739;DHT22;20063;51.730;11.110;2023-02-26T17:39:43;1.70;99.90
33739;DHT22;20063;51.730;11.110;2023-02-26T17:42:18;1.70;99.90
33739;DHT22;20063;51.730;11.110;2023-02-26T17:44:48;1.70;99.90
33739;DHT22;20063;51.730;11.110;2023-02-26T17:47:24;1.70;99.90
33739;DHT22;20063;51.730;11.110;2023-02-26T17:49:51;1.70;99.90
33739;DHT22;20063;51.730;11.110;2023-02-26T17:52:22;1.70;99.90
33739;DHT22;20063;51.730;11.110;2023-02-26T17:54:48;1.70;99.90
33739;DHT22;20063;51.730;11.110;2023-02-26T17:57:20;1.70;99.90
33739;DHT22;20063;51.730;11.110;2023-02-26T17:59:46;1.70;99.90
33739;DHT22;20063;51.730;11.110;2023-02-26T18:02:24;1.70;99.90
33739;DHT22;20063;51.730;11.110;2023-02-26T18:04:52;1.60;99.90
33739;DHT22;20063;51.730;11.110;2023-02-26T18:07:18;1.60;99.90
33739;DHT22;20063;51.730;11.110;2023-02-26T18:09:47;1.60;99.90
33739;DHT22;20063;51.730;11.110;2023-02-26T18:12:23;1.60;99.90
33739;DHT22;20063;51.730;11.110;2023-02-26T18:14:48;1.60;99.90
33739;DHT22;20063;51.730;11.110;2023-02-26T18:17:19;1.60;99.90
33739;DHT22;20063;51.730;11.110;2023-02-26T18:19:46;1.60;99.90
33739;DHT22;20063;51.730;11.110;2023-02-26T18:22:15;1.50;99.90
33739;DHT22;20063;51.730;11.110;2023-02-26T18:24:41;1.60;99.90
33739;DHT22;20063;51.730;11.110;2023-02-26T18:27:12;1.50;99.90
33739;DHT22;20063;51.730;11.110;2023-02-26T18:29:38;1.50;99.90
33739;DHT22;20063;51.730;11.110;2023-02-26T18:32:04;1.50;99.90